Pagrindinis puslapis
METAR-TAF:

METAR-TAF

Oro uostai :

Bario oro uostas

Baris, Italija

platuma: 41-08N, ilguma: 016-47E, Aukštis: 34 m

Dabartinis oras

Ataskaita buvo paskelbta 16 minutes, ne 18:50 UTC
Vėjas 7 kt iš Šiaurės, svyruoja nuo Šiaurės/Šiaurės Vakarų ir Rytų
Temperatūra 22°C
Drėgmė 73%
Slėgis 1017 hPa
Matomumas 10 km arba daugiau
Išsisklaidę debesys ne aukštis 2000 ft

METAR: LIBD 191850Z 01007KT 340V080 9999 SCT020 22/17 Q1017

Laikas: 21:06 (19:06 UTC)

Prognozė

Ataskaita buvo paskelbta 2 valandos ir 6 minutes, ne 17:00 UTC
Prognozė galioja nuo 19 metu 18 UTC su 20 metu 18 UTC
Vėjas 13 kt iš Šiaurės
Matomumas 10 km arba daugiau
Išsisklaidę debesys ne aukštis 4000 ft
Laikinai
nuo 19 metu 18 UTC su 19 metu 24 UTC
Matomumas: 3000 m
perkūnija, lietus

TAF: LIBD 191700Z 1918/2018 36013KT 9999 SCT040 TEMPO 1918/1924 3000 TSRA

Orai ataskaitas ir orų prognozės (METAR, TAF).

turimą stotys yra geltonos ir raudonos taškus žemėlapyje.

Perkelti pele per norėdami pamatyti stoties vardą.

Tada spustelėkite, norėdami matyti oro stebėjimo ir prognozės.

Norėdami pakeisti žemėlapį: spustelėkite ant žalios mygtukų su juodo kryžiaus žemyn,; žalią mygtuką su brūkšneliu, jei norite nutolinti; arba žalių rodyklių gretimoms žemėlapius.


METAR-TAF: